Observation data for Roaring Springs on 12/09/2018      Previous  Date  Next       Current Mesonet Observations  Soil Data  Daily Summary Page  Observations in Plain Language
KRRS 090600Z 29004KT M06/M06 A303 RMK A01 T10571060  RH  098%=      5-min Rain = 0
KRRS 090605Z 29004KT M06/M06 A303 RMK A01 T10571060  RH  098%=      5-min Rain = 0
KRRS 090610Z 29004KT M06/M06 A303 RMK A01 T10581062  RH  097%=      5-min Rain = 0
KRRS 090615Z 29004KT M06/M06 A303 RMK A01 T10601063  RH  097%=      5-min Rain = 0
KRRS 090620Z 28004KT M06/M07 A303 RMK A01 T10631066  RH  097%=      5-min Rain = 0
KRRS 090625Z 28004KT M06/M07 A3031 RMK A01 T10631066  RH  098%=      5-min Rain = 0
KRRS 090630Z 28004KT M07/M07 A3031 RMK A01 T10651068  RH  098%=      5-min Rain = 0
KRRS 090635Z 28004KT M07/M07 A3031 RMK A01 T10671070  RH  098%=      5-min Rain = 0
KRRS 090640Z 28004KT M07/M07 A3031 RMK A01 T10661069  RH  098%=      5-min Rain = 0
KRRS 090645Z 28005KT M07/M07 A3031 RMK A01 T10661068  RH  098%=      5-min Rain = 0
KRRS 090650Z 28005KT M07/M07 A3031 RMK A01 T10651068  RH  098%=      5-min Rain = 0
KRRS 090655Z 28005KT M07/M07 A3031 RMK A01 T10651068  RH  098%=      5-min Rain = 0
KRRS 090700Z 28005KT M07/M07 A3031 RMK A01 T10651067  RH  098%=      5-min Rain = 0
KRRS 090705Z 29005KT M06/M07 A3031 RMK A01 T10641067  RH  098%=      5-min Rain = 0
KRRS 090710Z 29005KT M06/M07 A303 RMK A01 T10641068  RH  098%=      5-min Rain = 0
KRRS 090715Z 30004KT M07/M07 A303 RMK A01 T10651068  RH  098%=      5-min Rain = 0
KRRS 090720Z 31004KT M06/M07 A303 RMK A01 T10641067  RH  098%=      5-min Rain = 0
KRRS 090725Z 31004KT M06/M06 A303 RMK A01 T10561058  RH  098%=      5-min Rain = 0
KRRS 090730Z 32005KT M04/M05 A303 RMK A01 T10441049  RH  097%=      5-min Rain = 0
KRRS 090735Z 32004KT M04/M05 A303 RMK A01 T10401047  RH  095%=      5-min Rain = 0
KRRS 090740Z 32004KT M04/M05 A303 RMK A01 T10381046  RH  095%=      5-min Rain = 0
KRRS 090745Z 32005KT M04/M04 A303 RMK A01 T10351043  RH  095%=      5-min Rain = 0
KRRS 090750Z 32005KT M03/M04 A3029 RMK A01 T10331042  RH  094%=      5-min Rain = 0
KRRS 090755Z 32005KT M03/M04 A3029 RMK A01 T10321043  RH  093%=      5-min Rain = 0
KRRS 090800Z 32004KT M03/M04 A303 RMK A01 T10321044  RH  092%=      5-min Rain = 0
KRRS 090805Z 32004KT M03/M05 A303 RMK A01 T10331046  RH  092%=      5-min Rain = 0
KRRS 090810Z 31003KT M04/M05 A303 RMK A01 T10381052  RH  090%=      5-min Rain = 0
KRRS 090815Z 31003KT M05/M06 A303 RMK A01 T10531063  RH  092%=      5-min Rain = 0
KRRS 090820Z 32003KT M05/M06 A303 RMK A01 T10541061  RH  095%=      5-min Rain = 0
KRRS 090825Z 32004KT M05/M06 A303 RMK A01 T10501057  RH  096%=      5-min Rain = 0
KRRS 090830Z 31003KT M05/M06 A303 RMK A01 T10471055  RH  094%=      5-min Rain = 0
KRRS 090835Z 31003KT M05/M06 A303 RMK A01 T10481057  RH  093%=      5-min Rain = 0
KRRS 090840Z 31003KT M05/M06 A303 RMK A01 T10511059  RH  094%=      5-min Rain = 0
KRRS 090845Z 32004KT M05/M06 A303 RMK A01 T10511059  RH  094%=      5-min Rain = 0
KRRS 090850Z 32004KT M05/M06 A303 RMK A01 T10501060  RH  093%=      5-min Rain = 0
KRRS 090855Z 32004KT M05/M06 A303 RMK A01 T10481058  RH  093%=      5-min Rain = 0
KRRS 090900Z 32004KT M05/M06 A303 RMK A01 T10461057  RH  092%=      5-min Rain = 0
KRRS 090905Z 32004KT M05/M06 A303 RMK A01 T10451057  RH  091%=      5-min Rain = 0
KRRS 090910Z 32004KT M04/M06 A303 RMK A01 T10431056  RH  091%=      5-min Rain = 0
KRRS 090915Z 32004KT M04/M06 A303 RMK A01 T10431055  RH  091%=      5-min Rain = 0
KRRS 090920Z 32004KT M04/M06 A303 RMK A01 T10441056  RH  091%=      5-min Rain = 0
KRRS 090925Z 32004KT M05/M06 A303 RMK A01 T10471058  RH  092%=      5-min Rain = 0
KRRS 090930Z 32004KT M05/M06 A303 RMK A01 T10461056  RH  093%=      5-min Rain = 0
KRRS 090935Z 31004KT M05/M06 A303 RMK A01 T10461057  RH  092%=      5-min Rain = 0
KRRS 090940Z 31004KT M05/M06 A303 RMK A01 T10511062  RH  093%=      5-min Rain = 0
KRRS 090945Z 31004KT M05/M06 A303 RMK A01 T10541062  RH  094%=      5-min Rain = 0
KRRS 090950Z 31004KT M05/M06 A303 RMK A01 T10541061  RH  095%=      5-min Rain = 0
KRRS 090955Z 30004KT M06/M06 A303 RMK A01 T10561063  RH  095%=      5-min Rain = 0
KRRS 091000Z 30005KT M06/M06 A303 RMK A01 T10581063  RH  096%=      5-min Rain = 0
KRRS 091005Z 30005KT M06/M06 A303 RMK A01 T10571062  RH  097%=      5-min Rain = 0
KRRS 091010Z 31004KT M06/M06 A303 RMK A01 T10581063  RH  096%=      5-min Rain = 0
KRRS 091015Z 31004KT M06/M06 A303 RMK A01 T10601064  RH  097%=      5-min Rain = 0
KRRS 091020Z 32005KT M05/M06 A303 RMK A01 T10521055  RH  098%=      5-min Rain = 0
KRRS 091025Z 32005KT M05/M05 A303 RMK A01 T10451051  RH  096%=      5-min Rain = 0
KRRS 091030Z 32005KT M04/M05 A303 RMK A01 T10411051  RH  093%=      5-min Rain = 0
KRRS 091035Z 32005KT M04/M05 A303 RMK A01 T10401051  RH  092%=      5-min Rain = 0
KRRS 091040Z 32004KT M04/M05 A303 RMK A01 T10401052  RH  091%=      5-min Rain = 0
KRRS 091045Z 32005KT M04/M05 A303 RMK A01 T10401053  RH  091%=      5-min Rain = 0
KRRS 091050Z 33005KT M04/M05 A303 RMK A01 T10401053  RH  091%=      5-min Rain = 0
KRRS 091055Z 33005KT M04/M05 A303 RMK A01 T10401053  RH  091%=      5-min Rain = 0
KRRS 091100Z 32005KT M04/M05 A303 RMK A01 T10391053  RH  090%=      5-min Rain = 0
KRRS 091105Z 33005KT M04/M05 A303 RMK A01 T10391054  RH  089%=      5-min Rain = 0
KRRS 091110Z 33005KT M04/M06 A303 RMK A01 T10391055  RH  089%=      5-min Rain = 0
KRRS 091115Z 33005KT M04/M06 A303 RMK A01 T10391056  RH  088%=      5-min Rain = 0
KRRS 091120Z 33005KT M04/M06 A303 RMK A01 T10391057  RH  088%=      5-min Rain = 0
KRRS 091125Z 33005KT M04/M06 A303 RMK A01 T10391058  RH  087%=      5-min Rain = 0
KRRS 091130Z 33005KT M04/M06 A3031 RMK A01 T10391058  RH  087%=      5-min Rain = 0
KRRS 091135Z 33005KT M04/M06 A3031 RMK A01 T10391059  RH  087%=      5-min Rain = 0
KRRS 091140Z 33006KT M04/M06 A3031 RMK A01 T10391059  RH  087%=      5-min Rain = 0
KRRS 091145Z 33006KT M04/M06 A3031 RMK A01 T10391059  RH  086%=      5-min Rain = 0
KRRS 091150Z 33006KT M04/M06 A3031 RMK A01 T10391059  RH  086%=      5-min Rain = 0
KRRS 091155Z 33005KT M04/M06 A3031 RMK A01 T10391060  RH  086%=      5-min Rain = 0
KRRS 091200Z 33005KT M04/M06 A3031 RMK A01 T10391060  RH  086%=      5-min Rain = 0
KRRS 091205Z 33006KT M04/M06 A3032 RMK A01 T10391060  RH  086%=      5-min Rain = 0
KRRS 091210Z 33006KT M04/M06 A3032 RMK A01 T10391059  RH  086%=      5-min Rain = 0
KRRS 091215Z 33005KT M04/M06 A3032 RMK A01 T10391059  RH  086%=      5-min Rain = 0
KRRS 091220Z 32005KT M04/M06 A3032 RMK A01 T10391060  RH  086%=      5-min Rain = 0
KRRS 091225Z 32005KT M04/M06 A3032 RMK A01 T10401061  RH  086%=      5-min Rain = 0
KRRS 091230Z 33005KT M04/M06 A3032 RMK A01 T10421062  RH  086%=      5-min Rain = 0
KRRS 091235Z 33005KT M04/M06 A3032 RMK A01 T10421062  RH  086%=      5-min Rain = 0
KRRS 091240Z 33005KT M04/M06 A3032 RMK A01 T10411062  RH  085%=      5-min Rain = 0
KRRS 091245Z 33005KT M04/M06 A3033 RMK A01 T10401063  RH  085%=      5-min Rain = 0
KRRS 091250Z 33005KT M04/M06 A3033 RMK A01 T10401064  RH  084%=      5-min Rain = 0
KRRS 091255Z 33005KT M04/M06 A3033 RMK A01 T10411064  RH  084%=      5-min Rain = 0
KRRS 091300Z 32005KT M04/M07 A3033 RMK A01 T10411065  RH  084%=      5-min Rain = 0
KRRS 091305Z 32005KT M04/M07 A3033 RMK A01 T10431066  RH  084%=      5-min Rain = 0
KRRS 091310Z 32005KT M04/M07 A3033 RMK A01 T10431067  RH  084%=      5-min Rain = 0
KRRS 091315Z 32005KT M05/M07 A3033 RMK A01 T10451068  RH  084%=      5-min Rain = 0
KRRS 091320Z 32005KT M05/M07 A3034 RMK A01 T10471069  RH  085%=      5-min Rain = 0
KRRS 091325Z 32005KT M05/M07 A3034 RMK A01 T10471069  RH  085%=      5-min Rain = 0
KRRS 091330Z 32005KT M05/M07 A3034 RMK A01 T10461068  RH  085%=      5-min Rain = 0
KRRS 091335Z 32005KT M04/M07 A3034 RMK A01 T10441068  RH  084%=      5-min Rain = 0
KRRS 091340Z 31004KT M05/M07 A3035 RMK A01 T10491072  RH  084%=      5-min Rain = 0
KRRS 091345Z 31006KT M05/M07 A3035 RMK A01 T10541073  RH  086%=      5-min Rain = 0
KRRS 091350Z 31005KT M05/M07 A3035 RMK A01 T10501069  RH  086%=      5-min Rain = 0
KRRS 091355Z 30005KT M05/M07 A3035 RMK A01 T10521074  RH  085%=      5-min Rain = 0
KRRS 091400Z 31005KT M06/M08 A3035 RMK A01 T10591078  RH  086%=      5-min Rain = 0
KRRS 091405Z 31005KT M06/M07 A3035 RMK A01 T10571073  RH  089%=      5-min Rain = 0
KRRS 091410Z 31005KT M05/M07 A3035 RMK A01 T10501066  RH  089%=      5-min Rain = 0
KRRS 091415Z 31005KT M04/M06 A3036 RMK A01 T10441063  RH  087%=      5-min Rain = 0
KRRS 091420Z 31004KT M04/M06 A3036 RMK A01 T10411062  RH  086%=      5-min Rain = 0
KRRS 091425Z 30004KT M04/M06 A3036 RMK A01 T10421064  RH  085%=      5-min Rain = 0
KRRS 091430Z 30004KT M04/M06 A3036 RMK A01 T10421063  RH  086%=      5-min Rain = 0
KRRS 091435Z 29004KT M04/M06 A3036 RMK A01 T10421063  RH  085%=      5-min Rain = 0
KRRS 091440Z 28004KT M04/M06 A3036 RMK A01 T10431064  RH  085%=      5-min Rain = 0
KRRS 091445Z 28003KT M04/M06 A3036 RMK A01 T10441064  RH  086%=      5-min Rain = 0
KRRS 091450Z 27003KT M04/M06 A3037 RMK A01 T10441064  RH  086%=      5-min Rain = 0
KRRS 091455Z 28003KT M04/M06 A3037 RMK A01 T10431063  RH  086%=      5-min Rain = 0
KRRS 091500Z 30004KT M04/M06 A3037 RMK A01 T10391059  RH  086%=      5-min Rain = 0
KRRS 091505Z 30003KT M03/M06 A3037 RMK A01 T10341056  RH  085%=      5-min Rain = 0
KRRS 091510Z 31002KT M03/M05 A3037 RMK A01 T10271053  RH  083%=      5-min Rain = 0
KRRS 091515Z 31004KT M02/M05 A3038 RMK A01 T10201051  RH  080%=      5-min Rain = 0
KRRS 091520Z 31004KT M02/M05 A3038 RMK A01 T10151051  RH  076%=      5-min Rain = 0
KRRS 091525Z 30003KT M01/M05 A3039 RMK A01 T10131050  RH  076%=      5-min Rain = 0
KRRS 091530Z 29004KT M02/M05 A3039 RMK A01 T10161051  RH  077%=      5-min Rain = 0
KRRS 091535Z 29004KT M02/M05 A3039 RMK A01 T10181050  RH  079%=      5-min Rain = 0
KRRS 091540Z 29004KT M02/M05 A3039 RMK A01 T10201048  RH  082%=      5-min Rain = 0
KRRS 091545Z 28004KT M02/M05 A3039 RMK A01 T10211047  RH  083%=      5-min Rain = 0
KRRS 091550Z 29004KT M02/M04 A3039 RMK A01 T10191044  RH  083%=      5-min Rain = 0
KRRS 091555Z 29003KT M01/M04 A3039 RMK A01 T10141040  RH  083%=      5-min Rain = 0
KRRS 091600Z 30003KT M01/M04 A3039 RMK A01 T10091038  RH  082%=      5-min Rain = 0
KRRS 091605Z 30003KT M01/M04 A3039 RMK A01 T10061037  RH  080%=      5-min Rain = 0
KRRS 091610Z 30003KT M00/M04 A304 RMK A01 T10031036  RH  079%=      5-min Rain = 0
KRRS 091615Z 30002KT 00/04 A3039 RMK A01 T00000-35  RH  077%=      5-min Rain = 0
KRRS 091620Z 31002KT 01/M03 A3039 RMK A01 T00051033  RH  076%=      5-min Rain = 0
KRRS 091625Z 32004KT 01/M04 A3039 RMK A01 T00081040  RH  070%=      5-min Rain = 0
KRRS 091630Z 32005KT 01/M05 A3039 RMK A01 T00101049  RH  065%=      5-min Rain = 0
KRRS 091635Z 33005KT 01/M05 A3039 RMK A01 T00111052  RH  063%=      5-min Rain = 0
KRRS 091640Z 35005KT 01/M05 A3039 RMK A01 T00121052  RH  063%=      5-min Rain = 0
KRRS 091645Z 35005KT 01/M05 A3039 RMK A01 T00121051  RH  063%=      5-min Rain = 0
KRRS 091650Z 34004KT 01/M05 A3039 RMK A01 T00141048  RH  063%=      5-min Rain = 0.01
KRRS 091655Z 33006KT 01/M05 A3039 RMK A01 T00141053  RH  061%=      5-min Rain = 0
KRRS 091700Z 33006KT 01/M05 A3039 RMK A01 T00141051  RH  062%=      5-min Rain = 0
KRRS 091705Z 33006KT 02/M05 A3039 RMK A01 T00151050  RH  062%=      5-min Rain = 0
KRRS 091710Z 33006KT 02/M05 A3039 RMK A01 T00161049  RH  063%=      5-min Rain = 0
KRRS 091715Z 33007KT 02/M04 A3039 RMK A01 T00171043  RH  064%=      5-min Rain = 0
KRRS 091720Z 32007KT 02/M04 A3039 RMK A01 T00181043  RH  064%=      5-min Rain = 0
KRRS 091725Z 32007KT 02/M05 A3039 RMK A01 T00181046  RH  063%=      5-min Rain = 0.01
KRRS 091730Z 32007KT 02/M05 A3039 RMK A01 T00191045  RH  063%=      5-min Rain = 0
KRRS 091735Z 32007KT 02/M05 A3039 RMK A01 T00201046  RH  062%=      5-min Rain = 0.01
KRRS 091740Z 32006KT 02/M04 A3038 RMK A01 T00211044  RH  062%=      5-min Rain = 0
KRRS 091745Z 32006KT 02/M04 A3038 RMK A01 T00231044  RH  062%=      5-min Rain = 0
KRRS 091750Z 32007KT 02/M04 A3039 RMK A01 T00231043  RH  062%=      5-min Rain = 0.01
KRRS 091755Z 32006KT 02/M04 A3038 RMK A01 T00241044  RH  061%=      5-min Rain = 0.01
KRRS 091800Z 31006KT 03/M05 A3038 RMK A01 T00251045  RH  060%=      5-min Rain = 0.01
KRRS 091805Z 31006KT 03/M04 A3038 RMK A01 T00261042  RH  061%=      5-min Rain = 0
KRRS 091810Z 32005KT 03/M04 A3038 RMK A01 T00271043  RH  060%=      5-min Rain = 0.01
KRRS 091815Z 32007KT 03/M05 A3037 RMK A01 T00281045  RH  059%=      5-min Rain = 0.01
KRRS 091820Z 32007KT 03/M05 A3037 RMK A01 T00291045  RH  059%=      5-min Rain = 0
KRRS 091825Z 33007KT 03/M05 A3037 RMK A01 T00291046  RH  058%=      5-min Rain = 0.01
KRRS 091830Z 32005KT 03/M04 A3037 RMK A01 T00321039  RH  060%=      5-min Rain = 0
KRRS 091835Z 32006KT 03/M04 A3037 RMK A01 T00321043  RH  058%=      5-min Rain = 0.01
KRRS 091840Z 33006KT 03/M05 A3036 RMK A01 T00341045  RH  057%=      5-min Rain = 0.01
KRRS 091845Z 35006KT 03/M05 A3036 RMK A01 T00341050  RH  054%=      5-min Rain = 0
KRRS 091850Z 34006KT 04/M05 A3036 RMK A01 T00351051  RH  053%=      5-min Rain = 0.01
KRRS 091855Z 34005KT 04/M05 A3036 RMK A01 T00361048  RH  054%=      5-min Rain = 0
KRRS 091900Z 35005KT 04/M05 A3035 RMK A01 T00361047  RH  055%=      5-min Rain = 0.01
KRRS 091905Z 34004KT 04/M04 A3035 RMK A01 T00371042  RH  056%=      5-min Rain = 0.01
KRRS 091910Z 34005KT 04/M06 A3035 RMK A01 T00381058  RH  049%=      5-min Rain = 0
KRRS 091915Z 35006KT 04/M06 A3034 RMK A01 T00391064  RH  047%=      5-min Rain = 0.01
KRRS 091920Z 36006KT 04/M07 A3034 RMK A01 T00381066  RH  047%=      5-min Rain = 0.01
KRRS 091925Z 35006KT 04/M06 A3034 RMK A01 T00391058  RH  049%=      5-min Rain = 0
KRRS 091930Z 00005KT 04/M06 A3034 RMK A01 T00401056  RH  050%=      5-min Rain = 0.01
KRRS 091935Z 01006KT 04/M05 A3034 RMK A01 T00411053  RH  050%=      5-min Rain = 0
KRRS 091940Z 36006KT 04/M06 A3034 RMK A01 T00401057  RH  049%=      5-min Rain = 0.01
KRRS 091945Z 34004KT 04/M05 A3034 RMK A01 T00421054  RH  050%=      5-min Rain = 0
KRRS 091950Z 34004KT 04/M05 A3034 RMK A01 T00441054  RH  049%=      5-min Rain = 0.01
KRRS 091955Z 36004KT 04/M05 A3034 RMK A01 T00441054  RH  049%=      5-min Rain = 0
KRRS 092000Z 34004KT 04/M05 A3034 RMK A01 T00441054  RH  049%=      5-min Rain = 0.01
KRRS 092005Z 34003KT 05/M05 A3034 RMK A01 T00451053  RH  049%=      5-min Rain = 0.01
KRRS 092010Z 33003KT 05/M05 A3034 RMK A01 T00481052  RH  049%=      5-min Rain = 0.01
KRRS 092015Z 33003KT 05/M05 A3033 RMK A01 T00501048  RH  049%=      5-min Rain = 0
KRRS 092020Z 33004KT 05/M05 A3033 RMK A01 T00491049  RH  049%=      5-min Rain = 0.01
KRRS 092025Z 33004KT 05/M05 A3033 RMK A01 T00481047  RH  050%=      5-min Rain = 0
KRRS 092030Z 32004KT 05/M05 A3033 RMK A01 T00491050  RH  049%=      5-min Rain = 0.01
KRRS 092035Z 32003KT 05/M05 A3033 RMK A01 T00521049  RH  048%=      5-min Rain = 0
KRRS 092040Z 32004KT 05/M05 A3034 RMK A01 T00511051  RH  048%=      5-min Rain = 0.01
KRRS 092045Z 32004KT 05/M05 A3034 RMK A01 T00511050  RH  048%=      5-min Rain = 0
KRRS 092050Z 31004KT 05/M05 A3034 RMK A01 T00511050  RH  048%=      5-min Rain = 0.01
KRRS 092055Z 31004KT 05/M05 A3034 RMK A01 T00511047  RH  049%=      5-min Rain = 0.01
KRRS 092100Z 30004KT 05/M05 A3034 RMK A01 T00521047  RH  049%=      5-min Rain = 0
KRRS 092105Z 28005KT 05/M03 A3034 RMK A01 T00511025  RH  058%=      5-min Rain = 0.01
KRRS 092110Z 25006KT 05/M01 A3034 RMK A01 T00471008  RH  068%=      5-min Rain = 0
KRRS 092115Z 25006KT 05/M01 A3034 RMK A01 T00451008  RH  069%=      5-min Rain = 0
KRRS 092120Z 25006KT 04/M01 A3034 RMK A01 T00441009  RH  069%=      5-min Rain = 0.01
KRRS 092125Z 25005KT 05/M01 A3034 RMK A01 T00451011  RH  068%=      5-min Rain = 0
KRRS 092130Z 26005KT 05/M01 A3034 RMK A01 T00451013  RH  067%=      5-min Rain = 0
KRRS 092135Z 26005KT 05/M01 A3034 RMK A01 T00451012  RH  067%=      5-min Rain = 0.01
KRRS 092140Z 26005KT 04/M01 A3034 RMK A01 T00441012  RH  067%=      5-min Rain = 0
KRRS 092145Z 27006KT 04/M01 A3034 RMK A01 T00441014  RH  067%=      5-min Rain = 0
KRRS 092150Z 27006KT 04/M01 A3034 RMK A01 T00431014  RH  067%=      5-min Rain = 0.01
KRRS 092155Z 26005KT 04/M01 A3033 RMK A01 T00431014  RH  067%=      5-min Rain = 0
KRRS 092200Z 27005KT 04/M01 A3033 RMK A01 T00441014  RH  067%=      5-min Rain = 0
KRRS 092205Z 27005KT 04/M01 A3033 RMK A01 T00441014  RH  067%=      5-min Rain = 0
KRRS 092210Z 27005KT 04/M02 A3033 RMK A01 T00431015  RH  066%=      5-min Rain = 0.01
KRRS 092215Z 27005KT 04/M01 A3034 RMK A01 T00431013  RH  067%=      5-min Rain = 0
KRRS 092220Z 26005KT 04/M01 A3033 RMK A01 T00441013  RH  067%=      5-min Rain = 0
KRRS 092225Z 27005KT 04/M01 A3033 RMK A01 T00431013  RH  068%=      5-min Rain = 0
KRRS 092230Z 26005KT 04/M01 A3034 RMK A01 T00421012  RH  068%=      5-min Rain = 0
KRRS 092235Z 25004KT 04/M01 A3033 RMK A01 T00421012  RH  069%=      5-min Rain = 0.01
KRRS 092240Z 26005KT 04/M01 A3033 RMK A01 T00411013  RH  069%=      5-min Rain = 0
KRRS 092245Z 26004KT 04/M01 A3034 RMK A01 T00401013  RH  069%=      5-min Rain = 0
KRRS 092250Z 25004KT 04/M01 A3033 RMK A01 T00391013  RH  069%=      5-min Rain = 0
KRRS 092255Z 26004KT 04/M01 A3033 RMK A01 T00381014  RH  070%=      5-min Rain = 0
KRRS 092300Z 25004KT 04/M01 A3033 RMK A01 T00371013  RH  071%=      5-min Rain = 0
KRRS 092305Z 25004KT 04/M01 A3033 RMK A01 T00361012  RH  072%=      5-min Rain = 0
KRRS 092310Z 26005KT 03/M01 A3034 RMK A01 T00341012  RH  072%=      5-min Rain = 0
KRRS 092315Z 26005KT 03/M01 A3033 RMK A01 T00321012  RH  074%=      5-min Rain = 0
KRRS 092320Z 26005KT 03/M01 A3033 RMK A01 T00291013  RH  075%=      5-min Rain = 0
KRRS 092325Z 25004KT 03/M01 A3033 RMK A01 T00271013  RH  076%=      5-min Rain = 0.01
KRRS 092330Z 25004KT 02/M01 A3033 RMK A01 T00241013  RH  077%=      5-min Rain = 0
KRRS 092335Z 25004KT 02/M01 A3033 RMK A01 T00201014  RH  079%=      5-min Rain = 0
KRRS 092340Z 26005KT 02/M02 A3033 RMK A01 T00171015  RH  080%=      5-min Rain = 0
KRRS 092345Z 26006KT 01/M02 A3033 RMK A01 T00141016  RH  081%=      5-min Rain = 0
KRRS 092350Z 24005KT 01/M02 A3033 RMK A01 T00101016  RH  083%=      5-min Rain = 0
KRRS 092355Z 25006KT 01/M02 A3033 RMK A01 T00061018  RH  085%=      5-min Rain = 0
KRRS 100000Z 25006KT 00/M02 A3033 RMK A01 T00031019  RH  086%=      5-min Rain = 0
KRRS 100005Z 26006KT M00/M02 A3033 RMK A01 T10011020  RH  088%=      5-min Rain = 0
KRRS 100010Z 27006KT M00/M02 A3034 RMK A01 T10041021  RH  089%=      5-min Rain = 0
KRRS 100015Z 27007KT M01/M02 A3034 RMK A01 T10051020  RH  090%=      5-min Rain = 0
KRRS 100020Z 27007KT M01/M02 A3034 RMK A01 T10061020  RH  091%=      5-min Rain = 0
KRRS 100025Z 28008KT M01/M02 A3034 RMK A01 T10051019  RH  091%=      5-min Rain = 0
KRRS 100030Z 27007KT M01/M02 A3034 RMK A01 T10061021  RH  090%=      5-min Rain = 0
KRRS 100035Z 27007KT M01/M02 A3034 RMK A01 T10081023  RH  090%=      5-min Rain = 0
KRRS 100040Z 26008KT M01/M03 A3034 RMK A01 T10101025  RH  090%=      5-min Rain = 0
KRRS 100045Z 27008KT M01/M03 A3034 RMK A01 T10111025  RH  091%=      5-min Rain = 0
KRRS 100050Z 28008KT M01/M03 A3034 RMK A01 T10121026  RH  091%=      5-min Rain = 0
KRRS 100055Z 28009KT M01/M03 A3034 RMK A01 T10131027  RH  091%=      5-min Rain = 0
KRRS 100100Z 28010KT M01/M03 A3034 RMK A01 T10111028  RH  088%=      5-min Rain = 0
KRRS 100105Z 28010KT M01/M03 A3035 RMK A01 T10111030  RH  087%=      5-min Rain = 0
KRRS 100110Z 28009KT M01/M03 A3035 RMK A01 T10121031  RH  087%=      5-min Rain = 0
KRRS 100115Z 27009KT M01/M03 A3035 RMK A01 T10131032  RH  088%=      5-min Rain = 0
KRRS 100120Z 27009KT M01/M03 A3035 RMK A01 T10141032  RH  088%=      5-min Rain = 0
KRRS 100125Z 28009KT M01/M03 A3035 RMK A01 T10141033  RH  088%=      5-min Rain = 0
KRRS 100130Z 28009KT M01/M03 A3035 RMK A01 T10141033  RH  088%=      5-min Rain = 0
KRRS 100135Z 28009KT M02/M03 A3035 RMK A01 T10151033  RH  088%=      5-min Rain = 0
KRRS 100140Z 28009KT M02/M03 A3035 RMK A01 T10151033  RH  088%=      5-min Rain = 0
KRRS 100145Z 28009KT M01/M03 A3035 RMK A01 T10141033  RH  087%=      5-min Rain = 0
KRRS 100150Z 28010KT M01/M03 A3035 RMK A01 T10121033  RH  086%=      5-min Rain = 0
KRRS 100155Z 28011KT M01/M03 A3035 RMK A01 T10111033  RH  086%=      5-min Rain = 0
KRRS 100200Z 28010KT M01/M03 A3035 RMK A01 T10111034  RH  085%=      5-min Rain = 0
KRRS 100205Z 28010KT M01/M03 A3035 RMK A01 T10121034  RH  086%=      5-min Rain = 0
KRRS 100210Z 28010KT M01/M03 A3035 RMK A01 T10121033  RH  086%=      5-min Rain = 0
KRRS 100215Z 28010KT M01/M03 A3035 RMK A01 T10121033  RH  086%=      5-min Rain = 0
KRRS 100220Z 28009KT M01/M03 A3035 RMK A01 T10121033  RH  086%=      5-min Rain = 0
KRRS 100225Z 27009KT M01/M03 A3035 RMK A01 T10121033  RH  086%=      5-min Rain = 0
KRRS 100230Z 27009KT M01/M03 A3035 RMK A01 T10131034  RH  086%=      5-min Rain = 0
KRRS 100235Z 27009KT M02/M04 A3035 RMK A01 T10161035  RH  087%=      5-min Rain = 0
KRRS 100240Z 27010KT M02/M04 A3035 RMK A01 T10171035  RH  088%=      5-min Rain = 0
KRRS 100245Z 27010KT M02/M03 A3035 RMK A01 T10161034  RH  088%=      5-min Rain = 0
KRRS 100250Z 28010KT M02/M04 A3036 RMK A01 T10171035  RH  088%=      5-min Rain = 0
KRRS 100255Z 28011KT M02/M04 A3036 RMK A01 T10171035  RH  089%=      5-min Rain = 0
KRRS 100300Z 28011KT M02/M03 A3036 RMK A01 T10171034  RH  089%=      5-min Rain = 0
KRRS 100305Z 28011KT M02/M03 A3036 RMK A01 T10181034  RH  089%=      5-min Rain = 0
KRRS 100310Z 27011KT M02/M03 A3036 RMK A01 T10181034  RH  089%=      5-min Rain = 0
KRRS 100315Z 27011KT M02/M04 A3036 RMK A01 T10171035  RH  089%=      5-min Rain = 0
KRRS 100320Z 28011KT M02/M04 A3036 RMK A01 T10171035  RH  088%=      5-min Rain = 0
KRRS 100325Z 28011KT M02/M04 A3036 RMK A01 T10191036  RH  089%=      5-min Rain = 0
KRRS 100330Z 27010KT M02/M04 A3036 RMK A01 T10211037  RH  089%=      5-min Rain = 0
KRRS 100335Z 27010KT M02/M04 A3036 RMK A01 T10211037  RH  090%=      5-min Rain = 0
KRRS 100340Z 27010KT M02/M04 A3036 RMK A01 T10211037  RH  090%=      5-min Rain = 0
KRRS 100345Z 28009KT M02/M04 A3036 RMK A01 T10221037  RH  090%=      5-min Rain = 0
KRRS 100350Z 28010KT M02/M04 A3036 RMK A01 T10221037  RH  090%=      5-min Rain = 0
KRRS 100355Z 28011KT M02/M04 A3036 RMK A01 T10221036  RH  091%=      5-min Rain = 0
KRRS 100400Z 28010KT M02/M04 A3036 RMK A01 T10221037  RH  090%=      5-min Rain = 0
KRRS 100405Z 27010KT M03/M04 A3036 RMK A01 T10251038  RH  091%=      5-min Rain = 0
KRRS 100410Z 27010KT M03/M04 A3036 RMK A01 T10261038  RH  092%=      5-min Rain = 0
KRRS 100415Z 27010KT M02/M04 A3036 RMK A01 T10241036  RH  091%=      5-min Rain = 0
KRRS 100420Z 28011KT M02/M04 A3035 RMK A01 T10221037  RH  090%=      5-min Rain = 0
KRRS 100425Z 28011KT M02/M04 A3035 RMK A01 T10221037  RH  090%=      5-min Rain = 0
KRRS 100430Z 28011KT M02/M04 A3035 RMK A01 T10231038  RH  090%=      5-min Rain = 0
KRRS 100435Z 28011KT M02/M04 A3035 RMK A01 T10221038  RH  090%=      5-min Rain = 0
KRRS 100440Z 28012KT M02/M04 A3036 RMK A01 T10231037  RH  090%=      5-min Rain = 0
KRRS 100445Z 28011KT M02/M04 A3036 RMK A01 T10221037  RH  090%=      5-min Rain = 0
KRRS 100450Z 28011KT M02/M04 A3036 RMK A01 T10211037  RH  089%=      5-min Rain = 0
KRRS 100455Z 28011KT M02/M04 A3036 RMK A01 T10201036  RH  089%=      5-min Rain = 0
KRRS 100500Z 28010KT M02/M04 A3036 RMK A01 T10201037  RH  089%=      5-min Rain = 0
KRRS 100505Z 28011KT M02/M04 A3036 RMK A01 T10201036  RH  090%=      5-min Rain = 0
KRRS 100510Z 28011KT M02/M04 A3036 RMK A01 T10191035  RH  089%=      5-min Rain = 0
KRRS 100515Z 27010KT M02/M04 A3036 RMK A01 T10181035  RH  089%=      5-min Rain = 0
KRRS 100520Z 28011KT M02/M04 A3036 RMK A01 T10181035  RH  089%=      5-min Rain = 0
KRRS 100525Z 28012KT M02/M04 A3036 RMK A01 T10181035  RH  089%=      5-min Rain = 0
KRRS 100530Z 28012KT M02/M03 A3036 RMK A01 T10181034  RH  089%=      5-min Rain = 0
KRRS 100535Z 28011KT M02/M03 A3036 RMK A01 T10171034  RH  089%=      5-min Rain = 0
KRRS 100540Z 28010KT M02/M03 A3036 RMK A01 T10171034  RH  089%=      5-min Rain = 0
KRRS 100545Z 28010KT M02/M04 A3036 RMK A01 T10171035  RH  088%=      5-min Rain = 0
KRRS 100550Z 28010KT M02/M04 A3036 RMK A01 T10181035  RH  089%=      5-min Rain = 0
KRRS 100555Z 28010KT M02/M04 A3035 RMK A01 T10181035  RH  089%=      5-min Rain = 0

Page generated in 0.0093 seconds.